This is the latest recevied weather packets stored in our database for station/object PY1LEO-13. If no packets are shown the sender has not sent any weather packets the latest 10 day(s).
| Time | Temp. | Humidity | Pressure | Rain* | Wind** | Luminosity | Snow |
|---|---|---|---|---|---|---|---|
| 1777752363 | 27.78° C | 62% | 1016.7 hPa | - | - | - | - |
| 1777752063 | 28.33° C | 60% | 1016.7 hPa | - | - | - | - |
| 1777751763 | 28.33° C | 59% | 1016.4 hPa | - | - | - | - |
| 1777751463 | 28.33° C | 58% | 1016.4 hPa | - | - | - | - |
| 1777751163 | 28.33° C | 58% | 1016.3 hPa | - | - | - | - |
| 1777750863 | 28.33° C | 58% | 1016.2 hPa | - | - | - | - |
| 1777750563 | 28.89° C | 59% | 1016 hPa | - | - | - | - |
| 1777750263 | 28.89° C | 60% | 1015.8 hPa | - | - | - | - |
| 1777749963 | 28.89° C | 59% | 1015.7 hPa | - | - | - | - |
| 1777749663 | 28.89° C | 59% | 1015.4 hPa | - | - | - | - |
| 1777749363 | 28.89° C | 58% | 1015.4 hPa | - | - | - | - |
| 1777749063 | 30.56° C | 50% | 1014.7 hPa | - | - | - | - |
| 1777748763 | 30.56° C | 52% | 1014.7 hPa | - | - | - | - |
| 1777748463 | 30° C | 56% | 1014.8 hPa | - | - | - | - |
| 1777748163 | 29.44° C | 55% | 1014.8 hPa | - | - | - | - |
| 1777747863 | 28.89° C | 57% | 1014.7 hPa | - | - | - | - |
| 1777747563 | 28.89° C | 57% | 1014.7 hPa | - | - | - | - |
| 1777747263 | 28.89° C | 58% | 1014.7 hPa | - | - | - | - |
| 1777746963 | 29.44° C | 56% | 1014.7 hPa | - | - | - | - |
| 1777746663 | 29.44° C | 57% | 1014.7 hPa | - | - | - | - |
| 1777746363 | 29.44° C | 56% | 1014.6 hPa | - | - | - | - |
| 1777746063 | 30.56° C | 52% | 1014.6 hPa | - | - | - | - |
| 1777745763 | 30.56° C | 53% | 1014.6 hPa | - | - | - | - |
| 1777745463 | 31.67° C | 53% | 1014.5 hPa | - | - | - | - |
| 1777745163 | 30° C | 55% | 1014.5 hPa | - | - | - | - |
* Rain since midnight (hover to see other rain measurements)
** Current wind speed in m/s (hover to see current wind gust speed)